Time;durP1;ratioP1;P1;durP2;ratioP2;P2;SDS_P1;SDS_P2;PMS_P1;PMS_P2;Temp;Humidity;BMP_temperature;BMP_pressure;BME280_temperature;BME280_humidity;BME280_pressure;Samples;Min_cycle;Max_cycle;Signal;HPM_P1;HPM_P2
2021/06/13 00:00:48;;;;;;;11.93;6.03;;;;;;;15.58;100.00;100450.55;1808924;77;21943;-88
2021/06/13 00:03:14;;;;;;;16.52;5.83;;;;;;;15.51;100.00;100448.22;1761849;81;20880;-87
2021/06/13 00:05:40;;;;;;;10.95;6.15;;;;;;;15.49;100.00;100438.20;1762138;80;21161;-87
2021/06/13 00:08:06;;;;;;;17.23;6.37;;;;;;;15.47;100.00;100440.42;1761909;80;20943;-87
2021/06/13 00:10:32;;;;;;;10.95;5.65;;;;;;;15.41;100.00;100445.66;1762035;80;21125;-88
2021/06/13 00:12:58;;;;;;;14.60;5.20;;;;;;;15.38;100.00;100438.09;1740609;81;20861;-87
2021/06/13 00:15:26;;;;;;;11.28;4.92;;;;;;;15.37;100.00;100435.94;1762224;80;21026;-88
2021/06/13 00:17:53;;;;;;;10.75;5.42;;;;;;;15.38;100.00;100430.78;1761944;80;21076;-87
2021/06/13 00:20:24;;;;;;;12.70;5.22;;;;;;;15.35;100.00;100428.66;1762121;80;21059;-87
2021/06/13 00:22:51;;;;;;;14.25;5.47;;;;;;;15.35;100.00;100425.95;1746170;82;21117;-88
2021/06/13 00:25:18;;;;;;;16.05;6.10;;;;;;;15.33;100.00;100420.00;1746369;82;21490;-88
2021/06/13 00:27:44;;;;;;;12.10;5.60;;;;;;;15.28;100.00;100413.28;1746373;82;21613;-88
2021/06/13 00:30:14;;;;;;;16.27;5.30;;;;;;;15.27;100.00;100414.39;1746512;82;21144;-88
2021/06/13 00:32:41;;;;;;;11.78;5.53;;;;;;;15.26;100.00;100414.12;1746349;82;21074;-88
2021/06/13 00:35:08;;;;;;;15.18;5.58;;;;;;;15.27;100.00;100413.59;1746360;82;21058;-88
2021/06/13 00:37:34;;;;;;;16.32;6.10;;;;;;;15.27;100.00;100406.80;1746198;82;21008;-88
2021/06/13 00:40:00;;;;;;;16.87;6.40;;;;;;;15.25;100.00;100404.92;1746441;82;21134;-90
2021/06/13 00:42:26;;;;;;;20.25;6.53;;;;;;;15.19;100.00;100402.84;1746407;82;21887;-89
2021/06/13 00:44:52;;;;;;;14.35;6.47;;;;;;;15.17;100.00;100403.12;1746398;82;20892;-88
2021/06/13 00:47:18;;;;;;;11.90;5.45;;;;;;;15.12;100.00;100396.44;1721494;82;20868;-88
2021/06/13 00:49:43;;;;;;;19.32;6.03;;;;;;;15.12;100.00;100399.70;1746279;82;20939;-88
2021/06/13 00:52:10;;;;;;;13.28;5.78;;;;;;;15.10;100.00;100405.97;1746119;82;20983;-88
2021/06/13 00:54:36;;;;;;;9.55;5.65;;;;;;;15.08;100.00;100407.61;1746278;82;21142;-88
2021/06/13 00:57:03;;;;;;;17.90;5.78;;;;;;;15.08;100.00;100402.73;1746331;82;21075;-87
2021/06/13 00:59:28;;;;;;;16.45;5.83;;;;;;;15.08;100.00;100400.02;1744418;82;21087;-88
2021/06/13 01:01:54;;;;;;;12.82;6.28;;;;;;;15.05;100.00;100395.98;1741323;82;21039;-88
2021/06/13 01:04:20;;;;;;;28.45;5.58;;;;;;;15.01;100.00;100394.97;1741404;82;20940;-88
2021/06/13 01:07:21;;;;;;;17.73;5.08;;;;;;;14.99;100.00;100390.38;1741450;82;21123;-88
2021/06/13 01:10:03;;;;;;;12.47;5.35;;;;;;;14.96;100.00;100386.34;1741374;82;20984;-87
2021/06/13 01:12:38;;;;;;;14.47;5.75;;;;;;;14.94;100.00;100382.30;1737348;82;21043;-88
2021/06/13 01:15:11;;;;;;;19.70;6.03;;;;;;;14.92;100.00;100389.95;1615179;88;21096;-88
2021/06/13 01:17:45;;;;;;;13.28;5.75;;;;;;;14.90;100.00;100389.43;1593070;88;21152;-88
2021/06/13 01:20:27;;;;;;;15.58;5.62;;;;;;;14.89;100.00;100394.05;1623714;88;21162;-88
2021/06/13 01:23:16;;;;;;;14.70;6.58;;;;;;;14.85;100.00;100384.88;1622339;88;21081;-87
2021/06/13 01:26:20;;;;;;;13.25;6.12;;;;;;;14.86;100.00;100393.28;1623007;88;21148;-88
2021/06/13 01:29:03;;;;;;;12.60;6.20;;;;;;;14.87;100.00;100391.38;1618188;88;21034;-88
2021/06/13 01:31:55;;;;;;;13.20;5.97;;;;;;;14.87;100.00;100390.82;1627397;88;21634;-87
2021/06/13 01:34:37;;;;;;;18.77;6.67;;;;;;;14.71;100.00;100367.19;1628900;88;21163;-90
2021/06/13 01:37:08;;;;;;;13.38;5.75;;;;;;;14.83;100.00;100382.22;1627581;88;21663;-89
2021/06/13 01:39:38;;;;;;;17.30;6.22;;;;;;;14.83;100.00;100380.86;1628963;88;21043;-89
2021/06/13 01:42:05;;;;;;;12.90;6.25;;;;;;;14.81;100.00;100376.27;1628949;88;21106;-84
2021/06/13 01:44:32;;;;;;;16.15;6.58;;;;;;;14.81;100.00;100386.56;1628888;88;21063;-87
2021/06/13 01:47:02;;;;;;;14.45;6.00;;;;;;;14.78;100.00;100383.09;1627887;88;21304;-87
2021/06/13 01:49:30;;;;;;;16.97;6.17;;;;;;;14.79;100.00;100386.60;1628894;88;21196;-87
2021/06/13 01:51:56;;;;;;;15.32;6.17;;;;;;;14.82;100.00;100391.44;1621315;85;21037;-87
2021/06/13 01:54:25;;;;;;;11.15;6.03;;;;;;;14.78;100.00;100383.64;1683590;85;20973;-87
2021/06/13 01:56:53;;;;;;;13.38;5.85;;;;;;;14.76;100.00;100383.39;1683335;85;21040;-87
2021/06/13 01:59:22;;;;;;;15.75;6.22;;;;;;;14.79;100.00;100388.76;1686298;84;21121;-87
2021/06/13 02:01:50;;;;;;;18.23;6.65;;;;;;;14.84;100.00;100387.34;1674954;84;21035;-87
2021/06/13 02:04:16;;;;;;;18.52;6.60;;;;;;;14.94;100.00;100387.20;1698514;84;21019;-87
2021/06/13 02:06:49;;;;;;;14.78;6.30;;;;;;;14.98;100.00;100388.22;1698462;84;21035;-87
2021/06/13 02:09:21;;;;;;;;;;;;;;;15.04;100.00;100386.80;1665619;86;21150;-87
2021/06/13 02:11:48;;;;;;;18.57;6.70;;;;;;;15.14;100.00;100390.14;1674393;84;20903;-87
2021/06/13 02:14:20;;;;;;;15.30;6.70;;;;;;;15.26;100.00;100391.59;1683815;85;20991;-88
2021/06/13 02:16:47;;;;;;;17.27;7.78;;;;;;;15.34;100.00;100393.64;1683784;84;21007;-88
2021/06/13 02:19:18;;;;;;;18.52;8.03;;;;;;;15.42;100.00;100396.48;1683533;85;20979;-87
2021/06/13 02:21:47;;;;;;;21.55;7.05;;;;;;;15.51;100.00;100392.55;1673403;85;21154;-87
2021/06/13 02:24:17;;;;;;;15.72;6.95;;;;;;;15.59;100.00;100391.88;1676463;84;21202;-87
2021/06/13 02:26:44;;;;;;;16.93;6.92;;;;;;;15.70;100.00;100393.86;1683291;84;21118;-87
2021/06/13 02:29:11;;;;;;;14.03;6.40;;;;;;;15.78;100.00;100403.25;1681259;85;21042;-86
2021/06/13 02:31:41;;;;;;;18.80;6.15;;;;;;;15.83;100.00;100397.17;1671849;85;21037;-87
2021/06/13 02:34:09;;;;;;;12.13;6.00;;;;;;;15.89;100.00;100395.97;1672060;85;21641;-86
2021/06/13 02:36:37;;;;;;;12.93;5.72;;;;;;;15.99;100.00;100392.81;1683739;85;21996;-87
2021/06/13 02:39:06;;;;;;;8.68;4.75;;;;;;;16.08;100.00;100397.80;1667906;86;21010;-86
2021/06/13 02:41:34;;;;;;;10.05;4.45;;;;;;;16.21;100.00;100395.65;1669373;86;21018;-87
2021/06/13 02:44:00;;;;;;;7.87;3.50;;;;;;;16.35;100.00;100392.91;1656104;86;21027;-87
2021/06/13 02:46:26;;;;;;;9.43;3.52;;;;;;;16.53;100.00;100388.45;1663137;86;20912;-87
2021/06/13 02:48:52;;;;;;;6.62;3.40;;;;;;;16.80;100.00;100393.08;1683308;85;21064;-87
2021/06/13 02:51:35;;;;;;;9.13;3.60;;;;;;;17.17;100.00;100397.38;1683892;85;21630;-87
2021/06/13 02:54:04;;;;;;;9.78;3.22;;;;;;;17.54;100.00;100398.12;1682061;85;21574;-86
2021/06/13 02:56:41;;;;;;;5.97;3.22;;;;;;;17.86;100.00;100395.69;1683893;85;21087;-87
2021/06/13 02:59:38;;;;;;;5.80;3.05;;;;;;;18.12;100.00;100395.01;1684096;84;22951;-87
2021/06/13 03:02:08;;;;;;;7.30;3.10;;;;;;;18.20;100.00;100393.41;1701339;84;21145;-87
2021/06/13 03:04:36;;;;;;;8.33;2.67;;;;;;;18.27;100.00;100400.03;1701542;84;21141;-87
2021/06/13 03:07:10;;;;;;;5.28;3.00;;;;;;;18.28;100.00;100400.27;1784018;80;20983;-86
2021/06/13 03:09:37;;;;;;;4.42;3.10;;;;;;;18.34;100.00;100396.27;1788107;80;20995;-89
2021/06/13 03:12:04;;;;;;;4.95;3.33;;;;;;;18.51;100.00;100391.98;1788607;79;21054;-89
2021/06/13 03:14:32;;;;;;;7.35;3.70;;;;;;;18.77;100.00;100390.13;1788457;80;21119;-91
2021/06/13 03:16:59;;;;;;;8.35;4.15;;;;;;;19.19;100.00;100388.28;1788480;80;20964;-89
2021/06/13 03:19:28;;;;;;;11.80;3.75;;;;;;;19.70;100.00;100393.44;1757590;80;21022;-89
2021/06/13 03:21:56;;;;;;;10.43;3.75;;;;;;;20.24;100.00;100384.15;1788415;80;21010;-89
2021/06/13 03:24:24;;;;;;;14.93;3.83;;;;;;;20.88;100.00;100380.36;1786798;80;21024;-89
2021/06/13 03:26:53;;;;;;;6.95;3.35;;;;;;;21.46;100.00;100379.95;1782418;80;21528;-89
2021/06/13 03:29:21;;;;;;;8.43;3.70;;;;;;;22.06;100.00;100376.29;1782580;80;21028;-88
2021/06/13 03:31:49;;;;;;;12.90;3.80;;;;;;;22.43;100.00;100377.08;1782563;79;21012;-88
2021/06/13 03:34:16;;;;;;;6.58;3.40;;;;;;;22.90;100.00;100373.77;1752333;80;20973;-88
2021/06/13 03:36:43;;;;;;;6.25;3.75;;;;;;;23.26;100.00;100379.51;1782701;79;21087;-89
2021/06/13 03:39:11;;;;;;;6.03;4.30;;;;;;;23.63;100.00;100373.83;1782698;79;21162;-88
2021/06/13 03:41:39;;;;;;;11.48;4.25;;;;;;;24.17;100.00;100376.77;1782527;80;21048;-89
2021/06/13 03:44:05;;;;;;;10.30;4.37;;;;;;;24.79;100.00;100377.58;1782530;80;21051;-88
2021/06/13 03:46:34;;;;;;;9.30;4.50;;;;;;;25.28;100.00;100372.90;1782692;79;21067;-89
2021/06/13 03:49:02;;;;;;;10.40;4.37;;;;;;;25.74;100.00;100370.98;1782402;79;21052;-89
2021/06/13 03:51:28;;;;;;;6.15;3.85;;;;;;;26.10;100.00;100372.97;1782579;80;21970;-88
2021/06/13 03:54:00;;;;;;;8.68;3.70;;;;;;;26.67;100.00;100371.05;1752122;80;20858;-88
2021/06/13 03:56:31;;;;;;;10.40;3.77;;;;;;;27.26;100.00;100371.98;1782625;79;20957;-89
2021/06/13 03:58:58;;;;;;;9.15;3.72;;;;;;;27.45;100.00;100371.81;1782648;79;21511;-89
2021/06/13 04:01:25;;;;;;;5.83;4.00;;;;;;;27.64;100.00;100376.33;1752433;80;21521;-89
2021/06/13 04:03:53;;;;;;;4.55;3.37;;;;;;;27.95;100.00;100380.59;1747190;80;21124;-89
2021/06/13 04:06:22;;;;;;;8.35;3.77;;;;;;;28.49;100.00;100385.16;1747257;82;21490;-89
2021/06/13 04:08:50;;;;;;;7.30;3.35;;;;;;;29.14;100.00;100385.67;1747371;82;20987;-89
2021/06/13 04:11:20;;;;;;;6.12;3.75;;;;;;;29.80;100.00;100386.84;1747357;82;21055;-89
2021/06/13 04:13:47;;;;;;;6.10;3.40;;;;;;;29.98;100.00;100387.44;1747374;82;21106;-89
2021/06/13 04:16:17;;;;;;;6.72;3.35;;;;;;;30.45;98.55;100377.08;1747256;82;21089;-89
2021/06/13 04:18:44;;;;;;;6.97;3.72;;;;;;;30.99;93.13;100369.34;1747299;82;20983;-88
2021/06/13 04:21:16;;;;;;;7.97;3.92;;;;;;;31.57;89.37;100373.41;1747374;82;21011;-88
2021/06/13 04:23:45;;;;;;;10.30;3.70;;;;;;;31.98;85.85;100382.48;1749819;81;21048;-90
2021/06/13 04:26:20;;;;;;;6.92;3.37;;;;;;;32.44;77.99;100381.83;1750355;82;20992;-88
2021/06/13 04:28:49;;;;;;;16.67;3.85;;;;;;;32.53;74.44;100384.36;1704716;83;21154;-88
2021/06/13 04:31:17;;;;;;;5.87;3.60;;;;;;;32.61;73.03;100385.05;1704733;84;20997;-89
2021/06/13 04:33:48;;;;;;;6.55;4.05;;;;;;;33.02;71.29;100383.58;1704958;84;21038;-89
2021/06/13 04:36:16;;;;;;;7.40;3.75;;;;;;;33.61;68.43;100374.59;1704894;84;21415;-89
2021/06/13 04:38:42;;;;;;;5.47;4.03;;;;;;;33.97;63.60;100380.98;1704810;84;21485;-89
2021/06/13 04:41:10;;;;;;;8.83;3.95;;;;;;;33.92;62.45;100376.08;1704601;84;21092;-89
2021/06/13 04:43:37;;;;;;;7.40;3.98;;;;;;;33.85;61.83;100377.58;1704752;84;21544;-89
2021/06/13 04:46:05;;;;;;;7.70;4.30;;;;;;;33.98;64.03;100380.58;1622534;88;21479;-89
2021/06/13 04:48:31;;;;;;;6.03;3.67;;;;;;;34.49;59.29;100377.67;1622599;86;21618;-89
2021/06/13 04:51:04;;;;;;;12.88;4.28;;;;;;;34.82;58.70;100374.43;1622684;88;21058;-89
2021/06/13 04:53:59;;;;;;;6.90;3.98;;;;;;;34.93;56.38;100380.59;1622701;88;21379;-89
2021/06/13 04:56:54;;;;;;;6.53;4.30;;;;;;;35.04;56.52;100383.17;1622615;88;20944;-90
2021/06/13 04:59:22;;;;;;;7.95;4.22;;;;;;;35.58;53.01;100385.59;1622657;88;21083;-90
2021/06/13 05:01:48;;;;;;;9.83;4.55;;;;;;;35.80;51.55;100385.87;1622674;88;21110;-90
2021/06/13 05:04:16;;;;;;;7.33;4.55;;;;;;;35.64;51.43;100396.45;1622385;88;20960;-90
2021/06/13 05:06:44;;;;;;;13.58;5.00;;;;;;;35.71;51.36;100396.30;1657993;86;21179;-90
2021/06/13 05:09:11;;;;;;;9.48;5.25;;;;;;;35.97;51.21;100387.25;1670169;86;21515;-89
2021/06/13 05:11:38;;;;;;;6.72;5.00;;;;;;;36.31;49.92;100383.98;1740400;82;21468;-89
2021/06/13 05:14:06;;;;;;;10.82;5.15;;;;;;;36.91;49.06;100382.11;1750498;81;20972;-90
2021/06/13 05:16:33;;;;;;;9.50;5.90;;;;;;;36.94;46.67;100383.40;1750351;81;20999;-89
2021/06/13 05:18:59;;;;;;;8.10;5.72;;;;;;;37.44;45.77;100383.91;1750243;81;21123;-88
2021/06/13 05:21:25;;;;;;;9.13;5.08;;;;;;;38.09;44.46;100389.65;1750450;81;21032;-89
2021/06/13 05:23:51;;;;;;;9.08;5.05;;;;;;;38.74;43.43;100381.10;1750181;80;20897;-89
2021/06/13 05:26:17;;;;;;;7.60;4.90;;;;;;;39.08;42.36;100378.20;1750478;82;21558;-89
2021/06/13 05:28:44;;;;;;;7.78;4.60;;;;;;;39.50;40.46;100374.93;1750492;82;20967;-89
2021/06/13 05:31:10;;;;;;;7.80;4.75;;;;;;;39.19;40.79;100379.20;1750591;81;21363;-89
2021/06/13 05:33:36;;;;;;;7.15;5.10;;;;;;;39.20;41.44;100377.94;1747074;82;21023;-89
2021/06/13 05:36:04;;;;;;;6.22;4.70;;;;;;;39.42;40.50;100378.53;1750426;81;20881;-89
2021/06/13 05:38:30;;;;;;;10.50;4.92;;;;;;;39.94;39.66;100383.84;1750551;81;21527;-89
2021/06/13 05:40:57;;;;;;;6.70;4.80;;;;;;;39.86;39.10;100379.73;1750455;82;21476;-89
2021/06/13 05:43:23;;;;;;;7.17;4.80;;;;;;;40.24;39.44;100385.61;1750574;81;21055;-89
2021/06/13 05:45:49;;;;;;;14.15;5.40;;;;;;;40.48;38.67;100380.90;1750360;82;21023;-89
2021/06/13 05:48:15;;;;;;;6.78;4.58;;;;;;;40.58;39.35;100387.31;1750627;81;21482;-89
2021/06/13 05:50:42;;;;;;;6.28;4.97;;;;;;;41.02;38.62;100387.70;1750852;81;21036;-89
2021/06/13 05:53:08;;;;;;;11.05;5.12;;;;;;;41.70;36.23;100392.16;1750412;81;21024;-88
2021/06/13 05:55:36;;;;;;;7.58;4.87;;;;;;;42.30;35.09;100382.63;1733194;82;21244;-87
2021/06/13 05:58:03;;;;;;;8.78;4.53;;;;;;;42.72;33.57;100382.24;1731802;82;21021;-88
2021/06/13 06:00:34;;;;;;;8.15;4.60;;;;;;;42.69;33.82;100387.48;1731222;82;21016;-88
2021/06/13 06:03:00;;;;;;;5.08;4.15;;;;;;;42.60;33.35;100381.27;1750349;81;21009;-88
2021/06/13 06:05:26;;;;;;;6.05;4.33;;;;;;;42.62;33.87;100386.59;1742775;80;21531;-86
2021/06/13 06:07:54;;;;;;;4.75;4.35;;;;;;;42.83;33.04;100381.02;1712767;83;21130;-87
2021/06/13 06:10:23;;;;;;;6.25;4.35;;;;;;;42.77;32.36;100380.95;1750875;80;20996;-84
2021/06/13 06:12:49;;;;;;;4.37;3.98;;;;;;;42.72;32.75;100373.73;1727596;81;21563;-86
2021/06/13 06:15:18;;;;;;;4.78;4.25;;;;;;;43.02;32.58;100375.94;1752134;82;20989;-84
2021/06/13 06:17:46;;;;;;;7.08;3.90;;;;;;;43.15;31.15;100375.00;1752120;81;21012;-85
2021/06/13 06:20:15;;;;;;;5.80;3.70;;;;;;;43.45;29.57;100374.95;1719032;82;21049;-86
2021/06/13 06:22:42;;;;;;;5.30;4.10;;;;;;;43.48;29.04;100367.64;1752817;79;21010;-88
2021/06/13 06:25:10;;;;;;;5.42;4.12;;;;;;;43.84;28.68;100366.19;1738233;79;21054;-85
2021/06/13 06:27:38;;;;;;;4.78;4.28;;;;;;;43.95;27.83;100364.94;1738146;82;21152;-86
2021/06/13 06:30:06;;;;;;;3.95;3.55;;;;;;;44.17;27.81;100365.17;1794800;79;21011;-85
2021/06/13 06:32:33;;;;;;;6.60;3.92;;;;;;;44.10;28.17;100369.89;1800303;79;22130;-85
2021/06/13 06:34:59;;;;;;;5.65;3.87;;;;;;;43.93;27.64;100373.14;1777616;79;21489;-87
2021/06/13 06:37:25;;;;;;;4.97;3.85;;;;;;;44.10;27.13;100373.38;1781423;79;20892;-83
2021/06/13 06:39:51;;;;;;;4.20;3.67;;;;;;;44.29;27.29;100366.72;1767567;79;21030;-86
2021/06/13 06:42:17;;;;;;;3.90;3.60;;;;;;;44.11;26.68;100365.76;1736789;82;20913;-86
2021/06/13 06:44:42;;;;;;;5.72;4.05;;;;;;;44.27;26.80;100365.81;1765634;81;21632;-85
2021/06/13 06:47:08;;;;;;;4.80;3.47;;;;;;;44.66;26.52;100367.64;1766367;80;20891;-85
2021/06/13 06:49:34;;;;;;;4.33;3.92;;;;;;;44.50;26.26;100360.37;1726096;82;20885;-85
2021/06/13 06:52:01;;;;;;;5.65;3.60;;;;;;;44.68;26.10;100360.01;1774385;80;20880;-85
2021/06/13 06:54:27;;;;;;;4.15;3.75;;;;;;;44.90;25.50;100360.11;1766343;79;21752;-83
2021/06/13 06:57:30;;;;;;;4.92;3.55;;;;;;;45.03;26.00;100355.53;1757471;79;21040;-84
2021/06/13 06:59:54;;;;;;;4.15;3.60;;;;;;;45.29;24.38;100353.28;1729821;81;21022;-85
2021/06/13 07:02:25;;;;;;;8.35;4.17;;;;;;;45.39;24.33;100350.38;1761982;79;21058;-84
2021/06/13 07:04:51;;;;;;;7.05;3.65;;;;;;;45.14;23.19;100352.67;1731808;81;21762;-84
2021/06/13 07:07:16;;;;;;;5.10;4.28;;;;;;;44.83;23.89;100359.28;1767462;79;21084;-85
2021/06/13 07:09:42;;;;;;;4.45;3.62;;;;;;;44.80;24.23;100354.61;1748227;79;21624;-85
2021/06/13 07:12:09;;;;;;;4.75;3.77;;;;;;;44.75;23.81;100369.55;1737959;80;20963;-85
2021/06/13 07:14:35;;;;;;;7.17;3.90;;;;;;;44.90;24.78;100360.88;1745782;82;21042;-85
2021/06/13 07:17:01;;;;;;;6.15;3.77;;;;;;;44.97;23.52;100353.94;1752687;80;21097;-89
2021/06/13 07:19:27;;;;;;;6.70;4.05;;;;;;;44.92;24.07;100359.74;1763112;79;20916;-86
2021/06/13 07:21:53;;;;;;;4.53;3.62;;;;;;;45.14;24.15;100358.36;1743900;80;21658;-87
2021/06/13 07:24:19;;;;;;;6.22;3.98;;;;;;;45.31;23.56;100355.75;1755045;80;20893;-86
2021/06/13 07:26:45;;;;;;;5.03;3.90;;;;;;;45.38;23.81;100355.92;1755629;81;20929;-88
2021/06/13 07:29:11;;;;;;;4.40;4.00;;;;;;;45.57;23.13;100361.21;1754884;80;21000;-86
2021/06/13 07:31:37;;;;;;;5.80;3.83;;;;;;;45.46;23.68;100364.12;1732417;82;21144;-85
2021/06/13 07:34:03;;;;;;;4.67;3.70;;;;;;;45.54;23.82;100360.19;1780894;79;21087;-82
2021/06/13 07:36:28;;;;;;;4.10;3.70;;;;;;;45.44;22.93;100353.88;1776443;79;21697;-86
2021/06/13 07:38:54;;;;;;;7.55;4.12;;;;;;;44.95;23.14;100359.34;1734625;82;20860;-85
2021/06/13 07:41:20;;;;;;;4.28;3.87;;;;;;;45.02;23.49;100360.32;1750274;81;20853;-86
2021/06/13 07:43:46;;;;;;;4.42;3.80;;;;;;;44.98;22.50;100359.14;1751582;80;20877;-82
2021/06/13 07:46:12;;;;;;;4.87;4.00;;;;;;;44.91;22.86;100353.89;1758166;80;21370;-86
2021/06/13 07:48:38;;;;;;;4.22;3.72;;;;;;;45.04;23.39;100351.42;1761235;80;21008;-85
2021/06/13 07:51:06;;;;;;;6.08;3.87;;;;;;;45.25;23.18;100354.17;1721718;82;21756;-83
2021/06/13 07:53:32;;;;;;;5.60;3.83;;;;;;;45.30;22.49;100357.67;1738271;80;21023;-85
2021/06/13 07:55:58;;;;;;;4.37;3.98;;;;;;;45.01;22.05;100355.28;1751027;81;20960;-86
2021/06/13 07:58:24;;;;;;;5.85;3.60;;;;;;;43.93;22.78;100359.75;1750236;81;21113;-84
2021/06/13 08:00:51;;;;;;;6.00;3.67;;;;;;;43.44;23.34;100352.86;1755499;81;20892;-84
2021/06/13 08:03:16;;;;;;;7.40;3.98;;;;;;;43.29;24.02;100357.80;1755002;80;21009;-85
2021/06/13 08:05:43;;;;;;;5.62;3.83;;;;;;;43.04;24.30;100360.64;1755603;81;20904;-85
2021/06/13 08:08:10;;;;;;;4.78;3.35;;;;;;;42.28;24.55;100356.82;1755398;80;21008;-87
2021/06/13 08:10:39;;;;;;;5.28;3.50;;;;;;;42.57;25.30;100356.73;1755293;80;21120;-85
2021/06/13 08:13:05;;;;;;;4.92;3.55;;;;;;;42.98;25.91;100349.20;1755251;80;21007;-85
2021/06/13 08:15:31;;;;;;;8.48;4.97;;;;;;;43.20;25.16;100348.00;1755636;81;20892;-85
2021/06/13 08:17:58;;;;;;;9.15;5.92;;;;;;;43.46;25.18;100348.89;1755501;81;21590;-85
2021/06/13 08:20:25;;;;;;;7.22;4.30;;;;;;;43.88;24.53;100355.39;1755463;81;21551;-85
2021/06/13 08:22:51;;;;;;;8.00;4.28;;;;;;;43.82;24.28;100356.73;1755392;81;21281;-85
2021/06/13 08:25:18;;;;;;;9.03;4.20;;;;;;;43.77;24.50;100348.92;1755801;81;21601;-87
2021/06/13 08:27:44;;;;;;;5.83;3.90;;;;;;;44.20;24.96;100347.12;1755717;80;21492;-85
2021/06/13 08:30:13;;;;;;;7.83;3.85;;;;;;;44.10;23.68;100347.16;1755662;81;21062;-85
2021/06/13 08:32:41;;;;;;;6.58;3.67;;;;;;;43.93;24.04;100341.90;1755547;81;21570;-85
2021/06/13 08:35:08;;;;;;;6.08;3.47;;;;;;;43.66;24.51;100341.06;1755676;80;21080;-85
2021/06/13 08:37:36;;;;;;;5.83;3.80;;;;;;;43.87;24.46;100346.73;1732586;80;21023;-85
2021/06/13 08:40:04;;;;;;;10.58;5.95;;;;;;;44.16;24.23;100342.31;1742438;81;21032;-85
2021/06/13 08:42:31;;;;;;;7.72;4.25;;;;;;;44.28;23.90;100343.21;1755735;80;21499;-85
2021/06/13 08:44:57;;;;;;;4.12;3.65;;;;;;;44.37;22.95;100345.91;1755304;80;20980;-85
2021/06/13 08:47:24;;;;;;;5.22;4.08;;;;;;;44.62;23.82;100348.58;1735053;81;21251;-85
2021/06/13 08:49:51;;;;;;;11.35;4.17;;;;;;;44.68;23.09;100342.17;1712321;83;21007;-85
2021/06/13 08:52:17;;;;;;;7.08;3.77;;;;;;;44.52;23.54;100352.13;1736277;81;21031;-83
2021/06/13 08:54:44;;;;;;;5.45;3.90;;;;;;;44.64;23.57;100350.30;1752541;81;21443;-84
2021/06/13 08:57:11;;;;;;;4.78;3.40;;;;;;;44.38;22.66;100342.42;1730220;81;21075;-84
2021/06/13 08:59:37;;;;;;;6.70;3.40;;;;;;;44.13;22.63;100341.13;1739636;81;21263;-85
2021/06/13 09:02:05;;;;;;;8.95;3.45;;;;;;;43.65;23.53;100325.28;1725991;81;21052;-85
2021/06/13 09:04:31;;;;;;;8.60;4.00;;;;;;;43.51;23.90;100327.55;1752458;80;21524;-85
2021/06/13 09:06:57;;;;;;;6.92;3.80;;;;;;;43.64;24.50;100335.09;1772730;80;21159;-84
2021/06/13 09:09:26;;;;;;;8.93;4.00;;;;;;;43.74;23.73;100332.27;1772745;81;21118;-85
2021/06/13 09:12:04;;;;;;;5.05;3.72;;;;;;;43.96;23.57;100328.15;1772397;81;21186;-86
2021/06/13 09:14:40;;;;;;;8.38;3.83;;;;;;;43.83;24.28;100324.23;1709078;83;21047;-86
2021/06/13 09:17:16;;;;;;;5.60;3.75;;;;;;;43.81;24.21;100318.91;1709093;84;21173;-84
2021/06/13 09:20:13;;;;;;;6.42;3.98;;;;;;;43.89;23.76;100314.34;1709261;84;21032;-86
2021/06/13 09:22:38;;;;;;;7.70;3.67;;;;;;;43.36;24.01;100316.88;1708439;84;21031;-85
2021/06/13 09:25:11;;;;;;;17.12;4.40;;;;;;;41.97;24.41;100326.08;1708798;83;21400;-86
2021/06/13 09:27:39;;;;;;;11.45;3.95;;;;;;;40.84;25.52;100317.88;1716269;82;21116;-86
2021/06/13 09:30:09;;;;;;;12.35;4.10;;;;;;;39.91;26.76;100321.27;1708240;82;21039;-85
2021/06/13 09:33:16;;;;;;;9.63;3.65;;;;;;;38.90;27.84;100317.52;1702407;82;21562;-85
2021/06/13 09:35:45;;;;;;;6.10;3.50;;;;;;;38.12;28.74;100312.14;1726598;82;21078;-85
2021/06/13 09:38:25;;;;;;;9.20;3.95;;;;;;;37.26;29.29;100317.02;1709209;83;21527;-85
2021/06/13 09:41:02;;;;;;;10.75;3.67;;;;;;;36.50;30.14;100313.46;1709989;83;21039;-83
2021/06/13 09:43:33;;;;;;;6.90;3.50;;;;;;;35.67;31.34;100304.45;1716485;82;21034;-86
2021/06/13 09:46:12;;;;;;;11.60;3.65;;;;;;;35.24;32.39;100294.29;1713679;83;21196;-86
2021/06/13 09:48:42;;;;;;;6.95;3.60;;;;;;;34.99;33.63;100291.25;1713637;82;21108;-86
2021/06/13 09:51:13;;;;;;;5.47;3.33;;;;;;;34.76;34.34;100283.14;1687294;83;21559;-85
2021/06/13 09:53:53;;;;;;;7.53;3.30;;;;;;;34.53;34.57;100287.42;1629497;86;21473;-85
2021/06/13 09:56:30;;;;;;;6.90;3.40;;;;;;;34.27;35.27;100283.55;1611629;89;21058;-85
2021/06/13 09:59:03;;;;;;;7.92;4.10;;;;;;;33.86;36.40;100287.52;1639363;87;21030;-85
2021/06/13 10:01:42;;;;;;;11.97;4.72;;;;;;;33.63;38.86;100293.91;1669865;85;21130;-84
2021/06/13 10:04:19;;;;;;;7.12;4.45;;;;;;;33.24;38.64;100308.67;1627169;88;21317;-84
2021/06/13 10:06:51;;;;;;;14.40;5.75;;;;;;;32.82;39.83;100317.63;1606134;89;21131;-86
2021/06/13 10:09:20;;;;;;;8.00;4.22;;;;;;;32.54;40.28;100317.57;1560645;92;21548;-84
2021/06/13 10:11:51;;;;;;;10.72;3.45;;;;;;;32.17;41.16;100320.36;1539768;92;21074;-84
2021/06/13 10:14:18;;;;;;;6.83;3.52;;;;;;;31.92;41.66;100322.02;1529276;93;21136;-86
2021/06/13 10:16:51;;;;;;;6.97;3.20;;;;;;;31.67;41.91;100316.80;1529223;93;21170;-84
2021/06/13 10:19:19;;;;;;;;;;;;;;;31.40;41.67;100329.76;1505457;93;21068;-86
2021/06/13 10:21:49;;;;;;;8.20;3.30;;;;;;;30.98;41.90;100324.63;1518659;93;20233;-83
2021/06/13 10:24:22;;;;;;;5.75;2.62;;;;;;;30.47;44.03;100338.52;1522848;92;21601;-90
2021/06/13 10:26:57;;;;;;;14.60;3.70;;;;;;;29.95;44.51;100340.39;1531620;93;21117;-86
2021/06/13 10:29:26;;;;;;;11.83;3.37;;;;;;;29.47;47.72;100332.40;1531624;93;21456;-84
2021/06/13 10:31:59;;;;;;;9.63;3.45;;;;;;;29.02;51.28;100324.17;1515549;92;21569;-83
2021/06/13 10:34:27;;;;;;;8.48;3.20;;;;;;;28.50;55.86;100324.35;1529267;92;21088;-84
2021/06/13 10:36:57;;;;;;;9.13;3.70;;;;;;;28.16;64.58;100318.21;1531616;93;21573;-83
2021/06/13 10:39:27;;;;;;;6.40;3.55;;;;;;;27.82;70.34;100310.84;1530733;93;21114;-84
2021/06/13 10:41:54;;;;;;;6.28;3.27;;;;;;;27.53;74.59;100300.68;1514884;92;21493;-84
2021/06/13 10:44:24;;;;;;;7.05;2.83;;;;;;;27.34;85.02;100313.57;1571914;89;21058;-83
2021/06/13 10:46:55;;;;;;;9.53;3.15;;;;;;;27.20;86.56;100311.25;1609945;88;21069;-85
2021/06/13 10:49:37;;;;;;;7.25;3.80;;;;;;;27.20;87.25;100314.02;1623887;85;21138;-83
2021/06/13 10:52:11;;;;;;;4.78;2.72;;;;;;;27.37;76.91;100312.81;1710360;83;21622;-85
2021/06/13 10:54:52;;;;;;;6.60;2.70;;;;;;;27.56;79.37;100310.42;1646932;86;21951;-82
2021/06/13 10:57:24;;;;;;;15.32;5.20;;;;;;;27.79;79.50;100314.97;1655167;86;21155;-84
2021/06/13 10:59:57;;;;;;;13.48;6.45;;;;;;;27.96;75.25;100315.70;1655266;86;21677;-85
2021/06/13 11:02:38;;;;;;;22.67;6.72;;;;;;;28.12;74.64;100317.38;1654785;85;21187;-84
2021/06/13 11:05:08;;;;;;;13.78;4.87;;;;;;;28.38;78.07;100303.87;1655700;86;21003;-84
2021/06/13 11:07:42;;;;;;;13.50;3.42;;;;;;;28.71;79.17;100310.60;1663152;85;21306;-85
2021/06/13 11:10:15;;;;;;;5.90;3.20;;;;;;;29.12;72.48;100309.55;1668942;85;21010;-85
2021/06/13 11:13:04;;;;;;;6.08;2.92;;;;;;;29.54;69.05;100312.20;1639175;87;21126;-85
2021/06/13 11:15:38;;;;;;;6.85;3.85;;;;;;;29.91;70.05;100310.41;1611065;87;21090;-85
2021/06/13 11:18:19;;;;;;;6.72;3.00;;;;;;;30.08;62.18;100310.19;1613062;87;21114;-85
2021/06/13 11:21:07;;;;;;;8.88;3.25;;;;;;;30.18;58.24;100307.18;1609755;89;21807;-85
2021/06/13 11:23:38;;;;;;;8.85;3.37;;;;;;;30.32;60.64;100307.17;1602182;88;21805;-84
2021/06/13 11:28:41;;;;;;;8.25;3.65;;;;;;;30.55;61.64;100287.23;1561467;91;21084;-87
2021/06/13 11:31:15;;;;;;;5.95;4.12;;;;;;;30.71;59.15;100292.34;1561367;91;21009;-86
2021/06/13 11:33:52;;;;;;;4.80;3.37;;;;;;;30.92;57.58;100275.55;1565451;91;21104;-86